Time;durP1;ratioP1;P1;durP2;ratioP2;P2;SDS_P1;SDS_P2;PMS_P1;PMS_P2;Temp;Humidity;BMP_temperature;BMP_pressure;BME280_temperature;BME280_humidity;BME280_pressure;Samples;Min_cycle;Max_cycle;Signal;HPM_P1;HPM_P2
2022/11/04 00:00:52;;;;;;;9.02;2.10;;;12.70;99.90;;;;;;6156342;28;20043;-84
2022/11/04 00:03:54;;;;;;;3.20;1.55;;;12.70;99.90;;;;;;6159268;28;20051;-84
2022/11/04 00:06:58;;;;;;;4.65;1.95;;;12.60;99.90;;;;;;6159763;28;20075;-84
2022/11/04 00:09:59;;;;;;;4.47;1.52;;;12.60;99.90;;;;;;6159333;28;20047;-84
2022/11/04 00:13:00;;;;;;;4.32;1.58;;;12.50;99.90;;;;;;6159689;28;20055;-83
2022/11/04 00:28:41;;;;;;;6.40;1.42;;;12.50;99.90;;;;;;6154421;29;20047;-84
2022/11/04 00:29:34;;;;;;;4.15;1.92;;;12.40;99.90;;;;;;6195559;28;20111;-84
2022/11/04 00:35:57;;;;;;;1.23;0.80;;;12.30;99.90;;;;;;6186943;28;20404;-83
2022/11/04 00:39:00;;;;;;;1.15;0.43;;;12.40;99.90;;;;;;6187758;28;20054;-83
2022/11/04 00:42:02;;;;;;;3.90;1.35;;;12.40;99.90;;;;;;6189834;28;20065;-83
2022/11/04 00:45:25;;;;;;;3.00;1.55;;;12.40;99.90;;;;;;6185462;28;20061;-86
2022/11/04 00:48:27;;;;;;;2.40;1.00;;;12.50;99.90;;;;;;6163384;28;20133;-85
2022/11/04 00:51:28;;;;;;;5.43;1.52;;;12.50;99.90;;;;;;6165147;28;20109;-83
2022/11/04 00:54:31;;;;;;;6.40;0.90;;;12.50;99.90;;;;;;6165349;28;20047;-83
2022/11/04 00:57:33;;;;;;;1.33;0.60;;;12.50;99.90;;;;;;6159895;28;20054;-83
2022/11/04 01:00:35;;;;;;;2.00;0.88;;;12.40;99.90;;;;;;6159757;29;20390;-82
2022/11/04 01:03:37;;;;;;;3.50;0.73;;;12.40;99.90;;;;;;6122316;28;20054;-84
2022/11/04 01:06:38;;;;;;;1.58;0.90;;;12.30;99.90;;;;;;6183568;28;20436;-82
2022/11/04 01:09:42;;;;;;;1.35;0.40;;;12.30;99.90;;;;;;6182893;28;20074;-83
2022/11/04 01:12:43;;;;;;;1.45;0.63;;;12.30;99.90;;;;;;6182246;28;20054;-83
2022/11/04 01:15:45;;;;;;;3.13;0.80;;;12.20;99.90;;;;;;6177628;28;20113;-83
2022/11/04 01:18:47;;;;;;;1.67;0.70;;;12.20;99.90;;;;;;6178237;28;20043;-83
2022/11/04 01:21:51;;;;;;;2.10;0.70;;;12.20;99.90;;;;;;6178473;28;20042;-82
2022/11/04 01:24:54;;;;;;;0.98;0.40;;;12.20;99.90;;;;;;6178582;28;20548;-83
2022/11/04 01:27:56;;;;;;;0.73;0.47;;;12.20;99.90;;;;;;6179093;28;20505;-82
2022/11/04 01:30:57;;;;;;;2.58;0.70;;;12.30;99.90;;;;;;6177961;28;20505;-83
2022/11/04 01:34:00;;;;;;;0.75;0.47;;;12.30;99.90;;;;;;6177746;28;20046;-83
2022/11/04 01:37:11;;;;;;;1.95;0.22;;;12.30;99.90;;;;;;6177999;28;20373;-83
2022/11/04 01:40:14;;;;;;;1.92;0.45;;;12.20;99.90;;;;;;6176478;28;20512;-83
2022/11/04 01:43:18;;;;;;;1.00;0.17;;;12.20;99.90;;;;;;6178015;28;20528;-83
2022/11/04 01:46:27;;;;;;;4.20;0.38;;;12.10;99.90;;;;;;6181209;28;20043;-84
2022/11/04 01:49:32;;;;;;;0.85;0.40;;;12.20;99.90;;;;;;6181860;28;20046;-83
2022/11/04 01:52:38;;;;;;;0.60;0.30;;;12.10;99.90;;;;;;6181674;28;20425;-84
2022/11/04 01:55:46;;;;;;;2.65;0.73;;;12.10;99.90;;;;;;6180169;28;20098;-83
2022/11/04 01:58:51;;;;;;;1.38;0.60;;;12.20;99.90;;;;;;6179377;28;20046;-84
2022/11/04 02:01:53;;;;;;;1.35;0.50;;;12.10;99.90;;;;;;6180474;28;20055;-83
2022/11/04 02:04:55;;;;;;;1.92;0.28;;;12.10;99.90;;;;;;6180398;28;20051;-83
2022/11/04 02:08:00;;;;;;;1.45;0.32;;;12.10;99.90;;;;;;6180130;28;20055;-83
2022/11/04 02:11:03;;;;;;;0.98;0.32;;;12.10;99.90;;;;;;6178709;28;20050;-83
2022/11/04 02:14:04;;;;;;;6.43;0.50;;;12.10;99.90;;;;;;6178021;28;20424;-82
2022/11/04 02:17:17;;;;;;;1.15;0.32;;;12.00;99.90;;;;;;6178815;28;20050;-82
2022/11/04 02:20:29;;;;;;;0.60;0.30;;;12.00;99.90;;;;;;6178894;28;20046;-83
2022/11/04 02:24:03;;;;;;;2.10;0.40;;;11.90;99.90;;;;;;6177836;28;20416;-83
2022/11/04 02:27:33;;;;;;;3.92;0.40;;;11.90;99.90;;;;;;6169787;28;20062;-81
2022/11/04 02:30:46;;;;;;;0.77;0.32;;;11.90;99.90;;;;;;6173939;28;20058;-84
2022/11/04 02:37:32;;;;;;;1.27;0.45;;;12.00;99.90;;;;;;6194263;28;20407;-85
2022/11/04 02:40:39;;;;;;;1.52;0.40;;;11.80;99.90;;;;;;6202128;28;20045;-85
2022/11/04 02:43:48;;;;;;;0.83;0.33;;;11.80;99.90;;;;;;6200811;28;20050;-85
2022/11/04 02:46:56;;;;;;;1.10;0.68;;;11.90;99.90;;;;;;6197234;28;20038;-85
2022/11/04 02:50:02;;;;;;;1.50;0.57;;;11.90;99.90;;;;;;6175278;28;20042;-85
2022/11/04 02:53:09;;;;;;;0.93;0.45;;;11.90;99.90;;;;;;6177693;28;20051;-85
2022/11/04 02:56:13;;;;;;;0.82;0.32;;;11.90;99.90;;;;;;6178617;28;20224;-85
2022/11/04 02:59:20;;;;;;;1.55;0.75;;;11.90;99.90;;;;;;6177021;28;20066;-85
2022/11/04 03:02:28;;;;;;;4.40;1.00;;;11.80;99.90;;;;;;6176795;28;20055;-85
2022/11/04 03:05:33;;;;;;;1.13;0.60;;;11.80;99.90;;;;;;6177566;28;20043;-85
2022/11/04 03:08:38;;;;;;;5.88;0.40;;;11.80;99.90;;;;;;6177214;28;20426;-85
2022/11/04 03:11:45;;;;;;;0.32;0.20;;;11.80;99.90;;;;;;6177861;28;20055;-85
2022/11/04 03:14:52;;;;;;;1.40;0.20;;;11.90;99.90;;;;;;6177745;28;20050;-85
2022/11/04 03:18:02;;;;;;;3.40;0.77;;;11.90;99.90;;;;;;6175091;28;20509;-86
2022/11/04 03:21:09;;;;;;;3.15;0.40;;;11.90;99.90;;;;;;6176698;28;20043;-85
2022/11/04 03:24:10;;;;;;;3.72;0.30;;;11.80;99.90;;;;;;6176160;28;20051;-85
2022/11/04 03:27:19;;;;;;;1.85;0.50;;;11.80;99.90;;;;;;6175733;28;20043;-86
2022/11/04 03:30:23;;;;;;;2.95;0.68;;;11.70;99.90;;;;;;6175392;28;20054;-85
2022/11/04 03:33:33;;;;;;;2.10;0.90;;;11.70;99.90;;;;;;6175726;28;20492;-85
2022/11/04 03:36:35;;;;;;;1.10;0.47;;;11.60;99.90;;;;;;6175221;28;20062;-84
2022/11/04 03:39:37;;;;;;;0.88;0.30;;;11.50;99.90;;;;;;6173578;28;20058;-83
2022/11/04 03:42:45;;;;;;;0.80;0.43;;;11.50;99.90;;;;;;6174538;28;20517;-84
2022/11/04 03:45:46;;;;;;;0.68;0.22;;;11.40;99.90;;;;;;6174449;28;20047;-84
2022/11/04 03:48:52;;;;;;;2.47;0.45;;;11.50;99.90;;;;;;6174312;28;20055;-84
2022/11/04 03:51:54;;;;;;;0.70;0.50;;;11.40;99.90;;;;;;6175258;28;20500;-85
2022/11/04 03:54:55;;;;;;;1.20;0.50;;;11.50;99.90;;;;;;6174982;28;20055;-85
2022/11/04 03:58:04;;;;;;;0.32;0.30;;;11.50;99.90;;;;;;6175400;28;20051;-84
2022/11/04 04:01:18;;;;;;;1.92;0.80;;;11.50;99.90;;;;;;6176691;28;20429;-84
2022/11/04 04:04:27;;;;;;;0.68;0.28;;;11.40;99.90;;;;;;6176601;28;20050;-85
2022/11/04 04:07:35;;;;;;;1.88;0.60;;;11.40;99.90;;;;;;6176288;28;20048;-83
2022/11/04 04:10:42;;;;;;;2.05;0.50;;;11.40;99.90;;;;;;6175559;28;20047;-84
2022/11/04 04:13:49;;;;;;;2.67;0.80;;;11.40;99.90;;;;;;6177119;28;20051;-84
2022/11/04 04:16:53;;;;;;;1.17;0.50;;;11.40;99.90;;;;;;6177873;28;20053;-84
2022/11/04 04:20:00;;;;;;;4.90;0.73;;;11.40;99.90;;;;;;6177143;28;20121;-84
2022/11/04 04:27:29;;;;;;;1.92;0.65;;;11.40;99.90;;;;;;6176853;28;20051;-84
2022/11/04 04:29:51;;;;;;;4.15;0.52;;;11.30;99.90;;;;;;6176562;28;20050;-84
2022/11/04 04:32:57;;;;;;;5.82;0.80;;;11.30;99.90;;;;;;6181047;28;20058;-84
2022/11/04 04:36:01;;;;;;;3.35;0.60;;;11.30;99.90;;;;;;6182895;28;20139;-84
2022/11/04 04:45:50;;;;;;;0.57;0.22;;;11.20;99.90;;;;;;6175375;28;20461;-84
2022/11/04 04:48:51;;;;;;;3.40;0.60;;;11.10;99.90;;;;;;6177245;28;20054;-85
2022/11/04 04:51:55;;;;;;;7.85;0.55;;;11.20;99.90;;;;;;6181235;28;20051;-84
2022/11/04 04:54:56;;;;;;;0.70;0.47;;;11.10;99.90;;;;;;6183064;28;20051;-84
2022/11/04 04:57:58;;;;;;;0.95;0.40;;;11.10;99.90;;;;;;6181470;28;20053;-84
2022/11/04 05:01:00;;;;;;;1.38;1.13;;;11.10;99.90;;;;;;6181902;28;20053;-85
2022/11/04 05:04:01;;;;;;;1.90;0.45;;;11.10;99.90;;;;;;6181209;28;20065;-84
2022/11/04 05:07:05;;;;;;;1.45;0.65;;;11.10;99.90;;;;;;6180566;28;20061;-84
2022/11/04 05:10:09;;;;;;;2.92;1.00;;;11.10;99.90;;;;;;6180083;28;20054;-84
2022/11/04 05:13:28;;;;;;;3.17;0.60;;;11.10;99.90;;;;;;6178174;28;20461;-85
2022/11/04 05:19:46;;;;;;;1.65;0.68;;;11.20;99.90;;;;;;6177400;28;20465;-85
2022/11/04 05:22:49;;;;;;;1.65;0.47;;;11.30;99.90;;;;;;6177777;28;20080;-85
2022/11/04 05:25:51;;;;;;;0.82;0.25;;;11.40;99.90;;;;;;6177896;28;20105;-84
2022/11/04 05:28:53;;;;;;;6.75;1.70;;;11.50;99.90;;;;;;6177276;28;20057;-84
2022/11/04 05:31:55;;;;;;;1.83;0.50;;;11.50;99.90;;;;;;6178132;28;20054;-85
2022/11/04 05:34:56;;;;;;;0.95;0.20;;;11.60;99.90;;;;;;6178180;28;20043;-84
2022/11/04 05:37:59;;;;;;;3.80;0.63;;;11.60;99.90;;;;;;6177372;28;20051;-84
2022/11/04 05:41:01;;;;;;;0.45;0.20;;;11.60;99.90;;;;;;6177593;28;20046;-84
2022/11/04 05:44:04;;;;;;;1.02;0.68;;;11.50;99.90;;;;;;6177560;28;20520;-84
2022/11/04 05:47:06;;;;;;;2.10;0.40;;;11.50;99.90;;;;;;6177454;28;20047;-84
2022/11/04 05:50:08;;;;;;;0.75;0.38;;;11.50;99.90;;;;;;6176402;28;20050;-84
2022/11/04 05:53:11;;;;;;;4.68;0.32;;;11.40;99.90;;;;;;6178306;28;20055;-82
2022/11/04 05:56:13;;;;;;;4.18;0.80;;;11.40;99.90;;;;;;6177415;28;20050;-84
2022/11/04 05:59:15;;;;;;;3.58;0.35;;;11.50;99.90;;;;;;6176778;28;20053;-84
2022/11/04 06:02:16;;;;;;;4.10;0.70;;;11.40;99.90;;;;;;6176101;28;20058;-84
2022/11/04 06:05:18;;;;;;;0.75;0.32;;;11.40;99.90;;;;;;6177559;28;20053;-82
2022/11/04 06:08:21;;;;;;;5.63;0.75;;;11.30;99.90;;;;;;6176515;28;20050;-84
2022/11/04 06:11:25;;;;;;;1.95;0.73;;;11.20;99.90;;;;;;6177227;28;20042;-83
2022/11/04 06:14:26;;;;;;;1.23;0.30;;;11.10;99.90;;;;;;6177240;28;20062;-84
2022/11/04 06:17:28;;;;;;;0.57;0.38;;;11.10;99.90;;;;;;6179919;28;20393;-83
2022/11/04 06:20:30;;;;;;;6.72;0.90;;;11.00;99.90;;;;;;6186558;28;20054;-83
2022/11/04 06:23:33;;;;;;;23.75;1.85;;;10.90;99.90;;;;;;6180128;28;20039;-84
2022/11/04 06:26:34;;;;;;;2.03;0.73;;;10.80;99.90;;;;;;6176069;28;20042;-84
2022/11/04 06:29:39;;;;;;;5.53;0.70;;;10.80;99.90;;;;;;6176547;28;20050;-83
2022/11/04 06:32:41;;;;;;;3.05;1.27;;;10.80;99.90;;;;;;6181439;28;20050;-83
2022/11/04 06:35:43;;;;;;;3.15;1.00;;;10.80;99.90;;;;;;6180335;28;20058;-83
2022/11/04 06:38:46;;;;;;;5.35;0.65;;;10.80;99.90;;;;;;6179715;28;20054;-82
2022/11/04 06:41:47;;;;;;;3.85;0.80;;;10.70;99.90;;;;;;6180371;28;20043;-83
2022/11/04 06:44:49;;;;;;;1.90;0.98;;;10.70;99.90;;;;;;6180606;28;20050;-84
2022/11/04 06:47:51;;;;;;;1.38;0.73;;;10.70;99.90;;;;;;6181832;28;20045;-84
2022/11/04 06:50:53;;;;;;;3.45;0.82;;;10.80;99.90;;;;;;6181974;28;20047;-85
2022/11/04 06:53:56;;;;;;;6.68;1.13;;;10.80;99.90;;;;;;6179425;28;20047;-85
2022/11/04 06:56:58;;;;;;;3.58;1.10;;;10.80;99.90;;;;;;6180269;28;20050;-84
2022/11/04 06:59:59;;;;;;;3.03;0.75;;;10.90;99.90;;;;;;6180064;28;20047;-85
2022/11/04 07:03:01;;;;;;;2.22;0.60;;;11.00;99.90;;;;;;6179979;28;20050;-85
2022/11/04 07:06:07;;;;;;;8.07;1.33;;;11.10;99.90;;;;;;6179444;28;20061;-85
2022/11/04 07:09:12;;;;;;;3.75;1.40;;;11.20;99.90;;;;;;6180320;28;20058;-85
2022/11/04 07:12:14;;;;;;;8.27;1.38;;;11.30;99.90;;;;;;6179043;28;20046;-84
2022/11/04 07:15:15;;;;;;;2.83;1.00;;;11.30;99.90;;;;;;6179311;28;20046;-85
2022/11/04 07:18:17;;;;;;;2.10;0.65;;;11.40;99.90;;;;;;6179626;28;20054;-85
2022/11/04 07:21:19;;;;;;;2.15;0.82;;;11.40;99.90;;;;;;6178698;28;20073;-85
2022/11/04 07:24:22;;;;;;;1.77;0.85;;;11.50;99.90;;;;;;6179839;28;20091;-85
2022/11/04 07:27:24;;;;;;;5.45;0.60;;;11.50;99.90;;;;;;6177271;28;20062;-85
2022/11/04 07:30:26;;;;;;;1.15;0.55;;;11.70;99.90;;;;;;6179198;28;20440;-85
2022/11/04 07:33:28;;;;;;;5.18;0.82;;;11.80;99.90;;;;;;6180015;28;20058;-85
2022/11/04 07:36:30;;;;;;;6.28;0.85;;;12.00;99.90;;;;;;6180407;28;20057;-86
2022/11/04 07:39:33;;;;;;;16.90;1.30;;;12.20;99.90;;;;;;6178759;28;20501;-86
2022/11/04 07:42:34;;;;;;;3.65;1.65;;;12.40;99.90;;;;;;6182067;28;20047;-85
2022/11/04 07:45:36;;;;;;;2.38;0.80;;;12.50;99.90;;;;;;6179831;28;20436;-85
2022/11/04 07:48:38;;;;;;;3.65;1.33;;;12.70;99.90;;;;;;6178676;28;20055;-85
2022/11/04 07:51:40;;;;;;;2.97;0.47;;;12.80;99.90;;;;;;6177405;28;20053;-85
2022/11/04 07:54:43;;;;;;;7.97;1.38;;;13.00;99.90;;;;;;6176549;28;20054;-84
2022/11/04 07:57:44;;;;;;;6.25;1.25;;;13.00;99.90;;;;;;6176696;28;20054;-83
2022/11/04 08:00:46;;;;;;;1.77;0.65;;;13.10;99.90;;;;;;6166934;28;20043;-83
2022/11/04 08:03:48;;;;;;;2.25;0.50;;;13.20;99.90;;;;;;6184014;28;20054;-83
2022/11/04 08:06:50;;;;;;;1.80;0.47;;;13.40;99.90;;;;;;6196235;28;20070;-85
2022/11/04 08:09:53;;;;;;;0.88;0.47;;;13.50;99.90;;;;;;6176813;28;20050;-83
2022/11/04 08:12:55;;;;;;;2.45;0.30;;;13.50;99.90;;;;;;6180904;28;20055;-83
2022/11/04 08:15:57;;;;;;;1.40;0.55;;;13.50;99.90;;;;;;6179977;28;20062;-83
2022/11/04 08:19:00;;;;;;;2.78;1.85;;;13.60;99.90;;;;;;6178068;28;20424;-85
2022/11/04 08:22:02;;;;;;;2.70;0.40;;;13.70;99.90;;;;;;6177502;28;20206;-85
2022/11/04 08:25:06;;;;;;;5.47;0.47;;;13.80;99.90;;;;;;6180232;28;20061;-84
2022/11/04 08:28:07;;;;;;;3.13;0.60;;;13.90;99.90;;;;;;6182983;28;20050;-83
2022/11/04 08:31:13;;;;;;;0.70;0.30;;;14.10;99.90;;;;;;6181432;28;20053;-83
2022/11/04 08:34:17;;;;;;;2.15;0.50;;;14.30;99.90;;;;;;6181923;28;20054;-84
2022/11/04 08:37:18;;;;;;;3.90;0.52;;;14.60;99.90;;;;;;6182073;28;20053;-85
2022/11/04 08:40:23;;;;;;;1.55;0.60;;;14.80;99.90;;;;;;6182386;28;20050;-84
2022/11/04 08:43:26;;;;;;;3.42;0.65;;;14.90;99.90;;;;;;6181172;28;20097;-84
2022/11/04 08:46:29;;;;;;;1.48;0.60;;;15.00;99.90;;;;;;6181027;28;20050;-83
2022/11/04 08:49:30;;;;;;;3.28;0.57;;;15.20;99.90;;;;;;6181350;28;20057;-84
2022/11/04 08:52:33;;;;;;;2.83;0.57;;;15.30;99.90;;;;;;6181811;28;20051;-84
2022/11/04 08:55:36;;;;;;;2.85;0.70;;;15.40;99.90;;;;;;6180690;28;20074;-83
2022/11/04 08:58:37;;;;;;;3.00;0.68;;;15.70;99.90;;;;;;6182346;28;20054;-83
2022/11/04 09:01:39;;;;;;;3.40;0.52;;;16.10;99.90;;;;;;6183984;28;20050;-84
2022/11/04 09:04:41;;;;;;;3.88;0.85;;;16.50;99.90;;;;;;6183428;28;20466;-84
2022/11/04 09:07:43;;;;;;;5.50;0.73;;;16.60;99.90;;;;;;6181823;28;20050;-84
2022/11/04 09:10:48;;;;;;;1.55;0.40;;;16.70;99.90;;;;;;6182454;28;20039;-84
2022/11/04 09:13:50;;;;;;;5.55;0.90;;;16.90;99.90;;;;;;6182990;28;20102;-83
2022/11/04 09:16:52;;;;;;;6.53;0.70;;;17.10;99.90;;;;;;6181854;28;20050;-85
2022/11/04 09:19:54;;;;;;;3.22;0.50;;;17.30;99.90;;;;;;6182391;28;20066;-85
2022/11/04 09:22:56;;;;;;;4.07;0.40;;;17.80;99.90;;;;;;6181519;28;20058;-84
2022/11/04 09:26:04;;;;;;;4.00;0.88;;;18.20;99.90;;;;;;6181705;28;20047;-85
2022/11/04 09:29:08;;;;;;;7.28;0.70;;;18.40;99.90;;;;;;6183505;28;20051;-85
2022/11/04 09:32:10;;;;;;;1.55;0.43;;;18.40;99.90;;;;;;6183322;28;20047;-84
2022/11/04 09:35:11;;;;;;;3.15;0.65;;;18.40;99.90;;;;;;6179724;28;20425;-83
2022/11/04 09:38:13;;;;;;;3.00;0.40;;;18.50;99.90;;;;;;6179994;28;20053;-83
2022/11/04 09:41:51;;;;;;;3.50;0.45;;;18.70;99.90;;;;;;6181698;28;20051;-84
2022/11/04 09:44:58;;;;;;;4.30;0.52;;;18.80;99.90;;;;;;6190309;28;20050;-84
2022/11/04 09:48:03;;;;;;;3.75;1.10;;;18.90;99.90;;;;;;6204044;28;20054;-83
2022/11/04 09:51:06;;;;;;;4.13;0.75;;;18.80;99.90;;;;;;6203285;28;20050;-83
2022/11/04 09:54:15;;;;;;;4.47;0.57;;;18.60;99.70;;;;;;6197836;28;20047;-84
2022/11/04 09:57:19;;;;;;;9.43;0.73;;;18.50;99.70;;;;;;6179579;28;20046;-84
2022/11/04 10:00:22;;;;;;;4.32;0.90;;;18.20;99.50;;;;;;6181058;28;20053;-84
2022/11/04 10:03:46;;;;;;;2.55;0.68;;;17.90;99.20;;;;;;6178635;28;20046;-85
2022/11/04 10:07:06;;;;;;;3.70;0.68;;;17.60;99.40;;;;;;6179688;28;20050;-83
2022/11/04 10:10:18;;;;;;;4.10;0.88;;;17.40;99.70;;;;;;6179757;28;20043;-83
2022/11/04 10:13:31;;;;;;;4.00;0.57;;;17.20;99.60;;;;;;6179830;28;20035;-84
2022/11/04 10:16:46;;;;;;;1.88;0.57;;;17.10;99.60;;;;;;6180473;28;20050;-83
2022/11/04 10:20:00;;;;;;;2.75;0.60;;;17.00;99.70;;;;;;6179109;28;20051;-83
2022/11/04 10:23:07;;;;;;;1.60;0.52;;;16.90;99.60;;;;;;6179935;28;20069;-84
2022/11/04 10:26:15;;;;;;;7.95;0.85;;;16.80;99.60;;;;;;6180082;28;20051;-84
2022/11/04 10:29:27;;;;;;;6.47;0.60;;;16.70;99.80;;;;;;6179358;28;20046;-84
2022/11/04 10:32:35;;;;;;;3.65;0.60;;;16.70;99.90;;;;;;6181083;28;20043;-84
2022/11/04 10:35:41;;;;;;;7.53;0.63;;;16.80;99.80;;;;;;6184238;28;20054;-84
2022/11/04 10:38:44;;;;;;;4.15;0.50;;;16.90;99.90;;;;;;6183327;28;20051;-83
2022/11/04 10:41:46;;;;;;;1.90;0.80;;;17.10;99.80;;;;;;6178327;28;20393;-85
2022/11/04 10:44:51;;;;;;;1.55;0.57;;;17.20;99.70;;;;;;6178346;28;20047;-85
2022/11/04 10:48:00;;;;;;;4.00;0.50;;;17.30;99.50;;;;;;6177155;28;20047;-86
2022/11/04 10:51:03;;;;;;;8.23;0.90;;;17.50;99.30;;;;;;6177674;28;20042;-85
2022/11/04 10:54:08;;;;;;;1.60;0.60;;;17.60;99.30;;;;;;6178205;28;20515;-85
2022/11/04 10:57:11;;;;;;;11.73;0.60;;;17.60;99.10;;;;;;6155143;28;20062;-84
2022/11/04 11:00:37;;;;;;;4.28;0.80;;;17.70;98.90;;;;;;6154902;28;20055;-86
2022/11/04 11:03:38;;;;;;;1.25;0.40;;;17.80;99.00;;;;;;6153767;28;20047;-86
2022/11/04 11:06:40;;;;;;;3.83;0.60;;;17.80;98.60;;;;;;6151601;28;20047;-87
2022/11/04 11:09:51;;;;;;;3.03;0.40;;;17.80;98.70;;;;;;6151734;28;20054;-85
2022/11/04 11:12:56;;;;;;;2.72;0.52;;;17.80;98.60;;;;;;6154267;28;20047;-85
2022/11/04 11:16:08;;;;;;;3.97;1.95;;;17.80;98.90;;;;;;6155500;28;20042;-85
2022/11/04 11:19:16;;;;;;;1.52;0.85;;;17.90;98.90;;;;;;6154421;28;20114;-84
2022/11/04 11:22:37;;;;;;;6.70;0.63;;;18.00;98.80;;;;;;6155080;28;20058;-85
2022/11/04 11:25:44;;;;;;;5.72;0.63;;;18.10;99.00;;;;;;6153673;28;20501;-85
2022/11/04 11:28:55;;;;;;;4.85;0.50;;;18.10;98.90;;;;;;6155595;28;20060;-85
2022/11/04 11:32:00;;;;;;;3.45;0.75;;;18.00;99.10;;;;;;6152291;28;20051;-85
2022/11/04 11:35:02;;;;;;;2.22;0.40;;;18.10;99.20;;;;;;6152943;28;20055;-85
2022/11/04 11:38:06;;;;;;;1.52;0.75;;;18.20;99.30;;;;;;6153248;28;20057;-86
2022/11/04 11:41:09;;;;;;;2.90;0.30;;;18.50;99.50;;;;;;6151759;28;20086;-86
2022/11/04 11:44:27;;;;;;;3.08;0.82;;;18.90;99.80;;;;;;6154874;28;20062;-86
2022/11/04 11:47:40;;;;;;;5.50;0.50;;;19.40;99.70;;;;;;6154279;28;20062;-85
2022/11/04 11:50:57;;;;;;;13.48;1.60;;;19.70;99.20;;;;;;6156225;28;20047;-85
2022/11/04 11:54:18;;;;;;;6.10;0.57;;;20.00;99.00;;;;;;6156353;28;20510;-85
2022/11/04 11:57:31;;;;;;;3.83;0.68;;;20.10;98.50;;;;;;6169534;28;20507;-86
2022/11/04 12:00:37;;;;;;;2.08;0.70;;;20.00;97.60;;;;;;6189458;28;20448;-85
2022/11/04 12:03:44;;;;;;;5.82;2.60;;;19.90;97.50;;;;;;6190083;28;20105;-85
2022/11/04 12:06:52;;;;;;;2.83;0.60;;;19.80;97.40;;;;;;6209673;28;20046;-85
2022/11/04 12:10:03;;;;;;;5.88;1.25;;;19.80;97.60;;;;;;6207716;28;20050;-86
2022/11/04 12:13:15;;;;;;;4.55;0.50;;;19.90;97.80;;;;;;6207339;28;20492;-86
2022/11/04 12:16:26;;;;;;;1.58;0.50;;;20.30;97.50;;;;;;6207634;28;20054;-85
2022/11/04 12:19:44;;;;;;;4.13;0.50;;;20.70;97.50;;;;;;6201248;28;20046;-86
2022/11/04 12:22:50;;;;;;;;;;;21.20;97.30;;;;;;6183025;28;20049;-85
2022/11/04 12:26:05;;;;;;;1.92;0.30;;;21.70;98.40;;;;;;6182255;28;20013;-86
2022/11/04 12:29:28;;;;;;;4.07;0.73;;;22.00;96.40;;;;;;6182990;28;20058;-86
2022/11/04 12:32:48;;;;;;;2.42;0.40;;;22.40;95.60;;;;;;6182790;28;20170;-86
2022/11/04 12:36:01;;;;;;;3.60;0.70;;;22.80;94.70;;;;;;6183610;28;20057;-86
2022/11/04 12:39:19;;;;;;;1.25;0.50;;;22.70;93.70;;;;;;6183520;28;20051;-86
2022/11/04 12:42:27;;;;;;;1.23;0.32;;;22.30;92.50;;;;;;6182253;28;20492;-86
2022/11/04 12:45:38;;;;;;;1.42;0.30;;;22.00;92.50;;;;;;6182666;28;20053;-86
2022/11/04 12:48:56;;;;;;;1.92;0.52;;;21.70;92.20;;;;;;6182258;28;20062;-86
2022/11/04 12:52:16;;;;;;;2.53;1.33;;;21.60;92.50;;;;;;6183014;28;20046;-87
2022/11/04 12:55:33;;;;;;;4.90;1.02;;;21.50;92.90;;;;;;6182162;28;20055;-87
2022/11/04 12:58:48;;;;;;;3.58;0.40;;;21.70;93.10;;;;;;6171608;28;20044;-86
2022/11/04 13:02:13;;;;;;;1.17;0.20;;;21.80;92.80;;;;;;6182570;28;20050;-87
2022/11/04 13:05:32;;;;;;;1.75;0.47;;;22.20;92.60;;;;;;6182550;28;20149;-86
2022/11/04 13:08:48;;;;;;;4.30;0.50;;;22.50;91.80;;;;;;6182126;28;20055;-87
2022/11/04 13:11:54;;;;;;;1.88;0.30;;;22.70;91.00;;;;;;6178288;28;20497;-86
2022/11/04 13:15:03;;;;;;;1.83;0.65;;;23.00;90.60;;;;;;6179180;28;20051;-87
2022/11/04 13:18:07;;;;;;;2.72;0.25;;;23.30;89.90;;;;;;6180074;28;20047;-86
2022/11/04 13:21:13;;;;;;;4.40;0.70;;;23.40;87.60;;;;;;6181279;28;20047;-86
2022/11/04 13:24:23;;;;;;;2.65;0.30;;;23.10;86.90;;;;;;6182284;28;20489;-87
2022/11/04 13:27:28;;;;;;;0.75;0.30;;;22.90;87.00;;;;;;6179081;28;20059;-86
2022/11/04 13:30:36;;;;;;;4.38;0.40;;;22.70;86.80;;;;;;6178443;28;20058;-87
2022/11/04 13:33:47;;;;;;;1.50;0.40;;;22.50;86.80;;;;;;6179122;28;20499;-86
2022/11/04 13:36:56;;;;;;;1.77;0.35;;;22.20;86.70;;;;;;6178501;28;20078;-86
2022/11/04 13:40:06;;;;;;;2.85;0.57;;;22.00;86.40;;;;;;6179148;28;20058;-86
2022/11/04 13:43:40;;;;;;;1.58;0.32;;;21.90;87.20;;;;;;6180576;28;20038;-86
2022/11/04 13:46:48;;;;;;;1.45;0.20;;;21.90;87.50;;;;;;6180438;28;20181;-87
2022/11/04 13:49:54;;;;;;;4.53;0.40;;;21.80;86.50;;;;;;6177376;28;20046;-87
2022/11/04 13:52:55;;;;;;;3.40;0.88;;;21.70;84.80;;;;;;6177020;28;20047;-87
2022/11/04 13:55:59;;;;;;;5.60;0.50;;;21.40;83.70;;;;;;6177374;28;20523;-86
2022/11/04 13:59:15;;;;;;;1.83;0.28;;;21.10;82.70;;;;;;6177342;28;20120;-87
2022/11/04 14:02:42;;;;;;;2.90;0.52;;;20.70;82.30;;;;;;6177509;28;20042;-87
2022/11/04 14:06:02;;;;;;;3.28;0.55;;;20.10;82.50;;;;;;6178026;28;20521;-86
2022/11/04 14:09:24;;;;;;;6.72;0.50;;;19.50;82.50;;;;;;6177783;28;20067;-87
2022/11/04 14:12:36;;;;;;;3.20;0.20;;;19.20;82.70;;;;;;6178268;28;20050;-86
2022/11/04 14:16:00;;;;;;;2.03;0.35;;;19.00;82.50;;;;;;6179641;28;20054;-86
2022/11/04 14:19:54;;;;;;;3.25;0.40;;;18.80;83.20;;;;;;6180357;28;20050;-85
2022/11/04 14:22:57;;;;;;;4.88;0.73;;;18.80;83.10;;;;;;6178758;28;20053;-87
2022/11/04 14:26:01;;;;;;;7.88;0.98;;;18.80;82.70;;;;;;6178520;28;20047;-86
2022/11/04 14:29:09;;;;;;;2.50;0.52;;;18.80;82.30;;;;;;6179459;28;20051;-85
2022/11/04 14:32:12;;;;;;;0.70;0.10;;;18.70;82.10;;;;;;6181534;28;20079;-84
2022/11/04 14:35:18;;;;;;;0.55;0.30;;;18.70;82.90;;;;;;6180049;28;20055;-83
2022/11/04 14:38:27;;;;;;;1.75;0.50;;;18.60;83.00;;;;;;6179453;28;20050;-84
2022/11/04 14:41:54;;;;;;;3.20;0.50;;;18.50;82.80;;;;;;6180737;28;20531;-83
2022/11/04 14:44:58;;;;;;;1.98;0.60;;;18.30;83.00;;;;;;6171230;28;20520;-84
2022/11/04 14:48:11;;;;;;;2.72;0.43;;;18.20;83.50;;;;;;6180403;28;20051;-85
2022/11/04 14:51:24;;;;;;;5.90;0.43;;;18.00;83.80;;;;;;6180055;28;20050;-85
2022/11/04 14:54:30;;;;;;;2.38;0.13;;;17.90;84.40;;;;;;6179880;28;20046;-85
2022/11/04 14:57:37;;;;;;;4.18;0.45;;;18.00;85.10;;;;;;6180315;28;20078;-85
2022/11/04 15:00:52;;;;;;;1.17;0.32;;;18.00;86.30;;;;;;6179970;28;20428;-85
2022/11/04 15:03:54;;;;;;;4.03;0.65;;;18.10;87.20;;;;;;6182227;28;20039;-84
2022/11/04 15:06:58;;;;;;;4.80;0.82;;;18.20;87.80;;;;;;6180517;28;20062;-84
2022/11/04 15:10:02;;;;;;;5.70;0.93;;;18.40;88.00;;;;;;6181791;28;20108;-85
2022/11/04 15:13:03;;;;;;;10.80;1.05;;;18.50;87.70;;;;;;6181808;28;20051;-84
2022/11/04 15:16:14;;;;;;;4.75;0.82;;;18.60;87.40;;;;;;6165359;28;20054;-85
2022/11/04 15:19:26;;;;;;;2.35;1.25;;;18.50;87.30;;;;;;6192965;28;20051;-85
2022/11/04 15:22:29;;;;;;;7.78;2.22;;;18.40;87.30;;;;;;6181621;28;20050;-85
2022/11/04 15:25:31;;;;;;;9.43;0.70;;;18.10;87.00;;;;;;6179721;28;20050;-85
2022/11/04 15:28:38;;;;;;;2.83;1.38;;;17.90;87.50;;;;;;6179722;28;20157;-84
2022/11/04 15:31:54;;;;;;;8.23;1.00;;;17.60;87.80;;;;;;6180860;28;20058;-84
2022/11/04 15:34:57;;;;;;;3.80;0.60;;;17.30;88.30;;;;;;6179872;28;20432;-84
2022/11/04 15:38:00;;;;;;;2.33;0.75;;;17.10;88.60;;;;;;6179461;28;20508;-83
2022/11/04 15:44:21;;;;;;;2.45;0.47;;;16.60;89.80;;;;;;6179999;28;20039;-84
2022/11/04 15:47:27;;;;;;;33.65;12.05;;;16.30;90.50;;;;;;6179186;28;20492;-82
2022/11/04 15:50:31;;;;;;;30.00;14.30;;;16.10;90.40;;;;;;6178791;28;20054;-83
2022/11/04 15:53:36;;;;;;;9.63;3.17;;;16.10;90.60;;;;;;6178905;28;20101;-83
2022/11/04 15:56:42;;;;;;;20.10;10.30;;;15.90;90.80;;;;;;6156122;28;20050;-84
2022/11/04 15:59:49;;;;;;;5.85;2.97;;;15.80;91.00;;;;;;6175880;28;20425;-84
2022/11/04 16:02:54;;;;;;;3.40;1.30;;;15.70;91.20;;;;;;6178029;28;20046;-84
2022/11/04 16:06:04;;;;;;;17.05;2.30;;;15.60;91.30;;;;;;6179280;28;20070;-84
2022/11/04 16:09:20;;;;;;;4.25;1.50;;;15.40;91.50;;;;;;6177948;28;20078;-85
2022/11/04 16:12:27;;;;;;;7.70;1.17;;;15.20;92.00;;;;;;6178048;28;20058;-84
2022/11/04 16:15:38;;;;;;;3.27;1.33;;;15.00;92.20;;;;;;6177323;28;20057;-84
2022/11/04 16:18:44;;;;;;;8.00;1.00;;;14.80;92.50;;;;;;6182545;28;20069;-83
2022/11/04 16:21:46;;;;;;;10.93;2.00;;;14.70;92.70;;;;;;6201636;28;20050;-84
2022/11/04 16:24:51;;;;;;;43.28;20.40;;;14.60;92.90;;;;;;6202954;28;20050;-84
2022/11/04 16:27:53;;;;;;;6.05;2.83;;;14.50;93.10;;;;;;6202275;28;20053;-83
2022/11/04 16:30:59;;;;;;;3.95;0.77;;;14.40;93.30;;;;;;6202875;28;20049;-83
2022/11/04 16:34:07;;;;;;;9.00;2.33;;;14.30;93.60;;;;;;6202269;28;20050;-84
2022/11/04 16:41:00;;;;;;;9.95;1.90;;;14.20;94.60;;;;;;6203999;28;20051;-84
2022/11/04 16:44:03;;;;;;;3.97;0.80;;;14.50;95.10;;;;;;6204261;28;20053;-83
2022/11/04 16:47:06;;;;;;;3.97;1.10;;;14.40;95.60;;;;;;6207485;28;20444;-83